Time;durP1;ratioP1;P1;durP2;ratioP2;P2;SDS_P1;SDS_P2;PMS_P1;PMS_P2;Temp;Humidity;BMP_temperature;BMP_pressure;BME280_temperature;BME280_humidity;BME280_pressure;Samples;Min_cycle;Max_cycle;Signal;HPM_P1;HPM_P2
2023/11/18 00:12:50;;;;;;;16.77;12.13;;;8.20;99.90;;;;;;4796482;29;20186;-90
2023/11/18 00:32:28;;;;;;;16.47;11.40;;;8.00;99.90;;;;;;4866033;29;20882;-90
2023/11/18 02:35:37;;;;;;;11.23;5.97;;;8.70;99.90;;;;;;4815529;29;20251;-94
2023/11/18 03:31:05;;;;;;;10.63;3.80;;;8.60;99.90;;;;;;4832738;29;20183;-93
2023/11/18 03:58:30;;;;;;;;;;;;;;;;;;;;;
2023/11/18 05:29:15;;;;;;;;;;;;;;;;;;;;;
2023/11/18 05:52:15;;;;;;;8.87;2.97;;;8.80;99.90;;;;;;4925657;29;20261;-94
2023/11/18 05:54:58;;;;;;;7.80;2.63;;;8.80;99.90;;;;;;4908448;29;20198;-94
2023/11/18 05:57:32;;;;;;;7.33;2.47;;;8.80;99.90;;;;;;4955673;28;20246;-91
2023/11/18 06:00:00;;;;;;;6.97;2.43;;;8.80;99.90;;;;;;4969390;28;20186;-90
2023/11/18 06:03:07;;;;;;;8.10;3.00;;;8.90;99.90;;;;;;4952615;28;20187;-91
2023/11/18 06:09:37;;;;;;;7.93;2.40;;;8.80;99.90;;;;;;4920441;29;20196;-93
2023/11/18 06:12:08;;;;;;;9.37;2.60;;;9.00;99.90;;;;;;4943192;28;20194;-90
2023/11/18 06:14:57;;;;;;;7.50;2.23;;;8.90;99.90;;;;;;4989078;28;20190;-92
2023/11/18 06:17:55;;;;;;;7.90;2.93;;;8.90;99.90;;;;;;4957780;28;20242;-93
2023/11/18 06:20:27;;;;;;;9.00;2.60;;;8.90;99.90;;;;;;4990410;28;20187;-92
2023/11/18 06:23:00;;;;;;;8.17;2.70;;;8.90;99.90;;;;;;4976017;28;20229;-93
2023/11/18 06:25:59;;;;;;;6.97;2.63;;;8.90;99.90;;;;;;4982088;28;20213;-89
2023/11/18 06:28:49;;;;;;;9.97;2.77;;;9.00;99.90;;;;;;4976348;28;20202;-89
2023/11/18 06:31:30;;;;;;;5.13;2.30;;;9.00;99.90;;;;;;4985783;28;20191;-92
2023/11/18 06:33:57;;;;;;;9.60;2.67;;;9.00;99.90;;;;;;4954560;28;20226;-92
2023/11/18 07:17:39;;;;;;;;;;;;;;;;;;;;;
2023/11/18 07:20:28;;;;;;;7.97;2.53;;;9.30;99.90;;;;;;4931369;29;20296;-92
2023/11/18 07:40:00;;;;;;;10.03;3.90;;;9.40;99.90;;;;;;4907949;29;20218;-93
2023/11/18 07:49:26;;;;;;;7.23;3.37;;;9.30;99.90;;;;;;4889630;29;20289;-92
2023/11/18 07:52:59;;;;;;;12.53;3.60;;;9.40;99.90;;;;;;4906191;29;20198;-92
2023/11/18 07:58:56;;;;;;;7.60;4.20;;;9.40;99.90;;;;;;4909137;29;20172;-93
2023/11/18 08:05:14;;;;;;;8.87;4.53;;;9.40;99.90;;;;;;4920924;29;20220;-90
2023/11/18 08:08:01;;;;;;;12.70;4.43;;;9.40;99.90;;;;;;5037250;23;20231;-92
2023/11/18 08:11:01;;;;;;;11.33;5.07;;;9.30;99.90;;;;;;4979827;28;20268;-93
2023/11/18 08:16:53;;;;;;;10.53;4.80;;;9.30;99.90;;;;;;4998508;28;20289;-88
2023/11/18 08:33:28;;;;;;;;;;;;;;;;;;;;;
2023/11/18 08:40:34;;;;;;;9.53;5.57;;;9.50;99.90;;;;;;4930045;29;20193;-89
2023/11/18 08:50:56;;;;;;;9.90;5.33;;;9.50;99.90;;;;;;4799148;30;20244;-89
2023/11/18 08:53:41;;;;;;;11.47;6.43;;;9.40;99.90;;;;;;4803740;29;20190;-92
2023/11/18 08:56:48;;;;;;;7.67;5.27;;;9.30;99.90;;;;;;4834020;29;20228;-90
2023/11/18 09:03:26;;;;;;;;;;;;;;;;;;;;;
2023/11/18 09:08:59;;;;;;;10.30;6.10;;;9.30;99.90;;;;;;4964030;28;20210;-88
2023/11/18 09:11:32;;;;;;;11.93;6.07;;;9.30;99.90;;;;;;4996740;28;20258;-87
2023/11/18 09:14:00;;;;;;;9.83;5.70;;;9.30;99.90;;;;;;5005227;28;20184;-90
2023/11/18 09:16:29;;;;;;;13.90;6.70;;;9.30;99.90;;;;;;4985790;28;20556;-89
2023/11/18 09:19:22;;;;;;;;;;;;;;;;;;;;;
2023/11/18 09:24:54;;;;;;;10.03;6.30;;;9.50;99.90;;;;;;4923441;29;20177;-92
2023/11/18 09:27:22;;;;;;;9.87;5.13;;;9.50;99.90;;;;;;4923483;28;20195;-87
2023/11/18 09:34:15;;;;;;;12.43;6.87;;;9.50;99.90;;;;;;4982192;28;20273;-89
2023/11/18 09:40:59;;;;;;;;;;;;;;;;;;;;;
2023/11/18 09:44:18;;;;;;;12.17;6.10;;;9.40;99.90;;;;;;5011681;28;20202;-89
2023/11/18 09:47:56;;;;;;;12.43;6.07;;;9.40;99.90;;;;;;4961566;28;20188;-89
2023/11/18 09:50:58;;;;;;;;;;;;;;;;;;;;;
2023/11/18 10:01:18;;;;;;;10.53;5.83;;;9.60;99.90;;;;;;4922262;29;20177;-92
2023/11/18 10:04:06;;;;;;;9.03;6.40;;;9.70;99.90;;;;;;4980550;28;20189;-91
2023/11/18 10:06:51;;;;;;;11.10;6.60;;;9.70;99.90;;;;;;4996208;28;20277;-91
2023/11/18 10:10:33;;;;;;;;;;;;;;;;;;;;;
2023/11/18 10:17:36;;;;;;;;;;;;;;;;;;;;;
2023/11/18 10:21:07;;;;;;;9.63;6.27;;;9.80;99.90;;;;;;4913434;29;20208;-87
2023/11/18 10:24:21;;;;;;;8.13;5.60;;;9.70;99.90;;;;;;4930396;29;20238;-87
2023/11/18 10:27:08;;;;;;;8.17;5.90;;;9.80;99.90;;;;;;4955055;28;20199;-89
2023/11/18 10:29:44;;;;;;;10.67;6.40;;;9.80;99.90;;;;;;4985958;28;20189;-89
2023/11/18 10:33:10;;;;;;;9.93;6.80;;;9.70;99.90;;;;;;5017591;28;20177;-88
2023/11/18 10:36:08;;;;;;;6.87;5.03;;;9.80;99.90;;;;;;5011470;28;20211;-88
2023/11/18 10:39:00;;;;;;;7.37;5.17;;;9.80;99.90;;;;;;4995867;28;20194;-87
2023/11/18 10:42:08;;;;;;;9.30;5.63;;;9.80;99.90;;;;;;5003631;28;20185;-86
2023/11/18 10:45:40;;;;;;;8.50;5.33;;;9.80;99.90;;;;;;5014266;28;20195;-89
2023/11/18 10:48:06;;;;;;;7.77;4.50;;;9.70;99.90;;;;;;5015600;28;20238;-91
2023/11/18 10:50:58;;;;;;;8.73;4.73;;;9.70;99.90;;;;;;5017233;28;20211;-94
2023/11/18 10:53:32;;;;;;;7.77;4.90;;;9.70;99.90;;;;;;4998821;28;20181;-87
2023/11/18 10:56:48;;;;;;;6.67;4.50;;;9.70;99.90;;;;;;5015123;28;20196;-89
2023/11/18 11:00:19;;;;;;;6.87;4.20;;;9.70;99.90;;;;;;5016446;28;20189;-87
2023/11/18 11:03:11;;;;;;;5.67;3.63;;;9.70;99.90;;;;;;5017086;28;20206;-88
2023/11/18 11:06:17;;;;;;;6.60;3.63;;;9.60;99.90;;;;;;4992431;28;20167;-85
2023/11/18 11:09:14;;;;;;;5.60;3.03;;;9.70;99.90;;;;;;5015059;28;20239;-84
2023/11/18 11:11:49;;;;;;;4.30;3.00;;;9.80;99.90;;;;;;5000886;28;20206;-87
2023/11/18 11:14:53;;;;;;;5.33;3.03;;;9.70;99.90;;;;;;4998742;28;20238;-87
2023/11/18 11:17:42;;;;;;;4.33;3.27;;;9.70;99.90;;;;;;4999636;28;20206;-87
2023/11/18 11:21:08;;;;;;;5.50;2.70;;;9.70;99.90;;;;;;5016689;28;20168;-88
2023/11/18 11:24:36;;;;;;;3.27;2.30;;;9.70;99.90;;;;;;5010650;28;20249;-91
2023/11/18 11:27:35;;;;;;;4.20;2.37;;;9.70;99.90;;;;;;4973659;29;20672;-92
2023/11/18 11:31:06;;;;;;;4.10;2.03;;;9.70;99.90;;;;;;4976315;29;20182;-89
2023/11/18 11:33:55;;;;;;;3.87;1.90;;;9.80;99.90;;;;;;4961113;28;20228;-91
2023/11/18 11:36:50;;;;;;;3.10;1.80;;;9.80;99.90;;;;;;4980846;28;20209;-91
2023/11/18 11:39:54;;;;;;;4.57;1.93;;;9.80;99.90;;;;;;4995743;28;20195;-93
2023/11/18 11:42:34;;;;;;;3.47;1.80;;;9.80;99.90;;;;;;4982425;28;20176;-94
2023/11/18 11:46:07;;;;;;;;;;;;;;;;;;;;;
2023/11/18 11:49:29;;;;;;;7.03;2.00;;;9.90;99.90;;;;;;5019019;28;20175;-95
2023/11/18 11:52:58;;;;;;;4.53;1.83;;;9.80;99.90;;;;;;4998528;28;20202;-92
2023/11/18 11:56:05;;;;;;;7.97;3.70;;;9.80;99.90;;;;;;4928673;28;20193;-89
2023/11/18 11:58:51;;;;;;;6.93;3.87;;;9.80;99.90;;;;;;4971228;28;20185;-93
2023/11/18 12:02:56;;;;;;;6.23;2.23;;;9.90;99.90;;;;;;4997499;28;20204;-92
2023/11/18 12:05:33;;;;;;;2.13;1.50;;;9.90;99.90;;;;;;4942173;28;20240;-92
2023/11/18 12:08:34;;;;;;;4.87;1.70;;;9.80;99.90;;;;;;5000348;28;20171;-89
2023/11/18 12:11:21;;;;;;;3.27;1.83;;;9.80;99.90;;;;;;4998723;28;20207;-90
2023/11/18 12:18:13;;;;;;;;;;;;;;;;;;;;;
2023/11/18 12:21:12;;;;;;;2.03;1.30;;;9.80;99.90;;;;;;4993691;28;20278;-91
2023/11/18 12:24:53;;;;;;;2.57;1.33;;;9.90;99.90;;;;;;4998469;28;20194;-92
2023/11/18 12:31:42;;;;;;;3.50;1.70;;;9.90;99.90;;;;;;4966791;29;20212;-95
2023/11/18 12:35:17;;;;;;;2.40;1.40;;;10.00;99.90;;;;;;4917813;29;20194;-93
2023/11/18 12:38:34;;;;;;;3.97;1.87;;;10.00;99.90;;;;;;4852015;29;20246;-92
2023/11/18 12:45:46;;;;;;;2.93;1.40;;;10.00;99.90;;;;;;4853183;29;20192;-92
2023/11/18 12:48:11;;;;;;;2.40;1.40;;;10.00;99.90;;;;;;4849900;29;20188;-93
2023/11/18 12:51:06;;;;;;;3.40;1.20;;;9.90;99.90;;;;;;4837379;29;20194;-93
2023/11/18 12:54:39;;;;;;;2.37;1.33;;;9.90;99.90;;;;;;4874480;29;20326;-92
2023/11/18 12:57:53;;;;;;;2.73;1.43;;;10.00;99.90;;;;;;4848817;29;20220;-93
2023/11/18 13:04:24;;;;;;;2.43;1.20;;;10.00;99.90;;;;;;4822387;29;20208;-93
2023/11/18 13:10:52;;;;;;;3.37;1.50;;;9.90;99.90;;;;;;4849195;29;20208;-92
2023/11/18 13:13:39;;;;;;;2.10;1.30;;;9.90;99.90;;;;;;4836144;29;20204;-93
2023/11/18 13:16:40;;;;;;;4.40;2.63;;;10.00;99.90;;;;;;4839653;29;20274;-92
2023/11/18 13:19:34;;;;;;;1.80;1.10;;;10.00;99.90;;;;;;4840074;29;20229;-93
2023/11/18 13:23:01;;;;;;;;;;;;;;;;;;;;;
2023/11/18 13:29:33;;;;;;;1.30;1.10;;;10.00;99.90;;;;;;4893802;29;20190;-93
2023/11/18 13:33:19;;;;;;;;;;;;;;;;;;;;;
2023/11/18 13:36:38;;;;;;;1.57;1.10;;;10.00;99.90;;;;;;4792829;29;20217;-93
2023/11/18 13:39:52;;;;;;;2.57;1.13;;;10.10;99.90;;;;;;4934711;28;20218;-93
2023/11/18 13:43:11;;;;;;;1.83;0.97;;;10.10;99.90;;;;;;4931232;29;20186;-93
2023/11/18 13:49:59;;;;;;;1.70;1.17;;;10.10;99.90;;;;;;4934058;29;20190;-92
2023/11/18 13:56:57;;;;;;;;;;;;;;;;;;;;;
2023/11/18 14:00:17;;;;;;;;;;;;;;;;;;;;;
2023/11/18 14:11:09;;;;;;;1.43;1.13;;;10.20;99.90;;;;;;4912485;29;20225;-91
2023/11/18 14:13:59;;;;;;;2.80;1.27;;;10.20;99.90;;;;;;4895637;29;20200;-92
2023/11/18 14:16:30;;;;;;;1.00;0.80;;;10.20;99.90;;;;;;4935214;29;20199;-90
2023/11/18 14:19:23;;;;;;;1.47;1.10;;;10.20;99.90;;;;;;4955146;28;20265;-92
2023/11/18 14:22:06;;;;;;;3.70;1.53;;;10.20;99.90;;;;;;5009928;28;20196;-92
2023/11/18 14:24:58;;;;;;;2.17;1.30;;;10.30;99.90;;;;;;4981268;28;20252;-92
2023/11/18 14:31:28;;;;;;;2.23;1.30;;;10.30;99.90;;;;;;4936984;29;20220;-92
2023/11/18 14:41:19;;;;;;;2.07;0.90;;;10.30;99.90;;;;;;4954466;28;20184;-93
2023/11/18 14:44:03;;;;;;;;;;;;;;;;;;;;;
2023/11/18 14:47:11;;;;;;;1.80;0.93;;;10.40;99.90;;;;;;4999280;28;20219;-93
2023/11/18 14:50:01;;;;;;;1.33;1.07;;;10.40;99.90;;;;;;4990809;28;20184;-92
2023/11/18 14:52:30;;;;;;;2.83;1.37;;;10.40;99.90;;;;;;4977529;28;20184;-90
2023/11/18 14:55:33;;;;;;;2.17;1.10;;;10.40;99.90;;;;;;4989153;28;20191;-92
2023/11/18 14:58:53;;;;;;;1.53;0.87;;;10.50;99.90;;;;;;4963021;28;20206;-93
2023/11/18 15:01:26;;;;;;;1.07;0.90;;;10.50;99.90;;;;;;4992952;28;20191;-92
2023/11/18 15:03:52;;;;;;;1.20;0.97;;;10.50;99.90;;;;;;4991397;28;20241;-90
2023/11/18 15:07:12;;;;;;;2.57;1.30;;;10.50;99.90;;;;;;4993381;28;20204;-90
2023/11/18 15:10:09;;;;;;;2.37;1.33;;;10.50;99.90;;;;;;4997779;28;20199;-90
2023/11/18 15:13:31;;;;;;;1.27;1.00;;;10.50;99.90;;;;;;5003457;28;20227;-91
2023/11/18 15:16:48;;;;;;;1.97;0.80;;;10.50;99.90;;;;;;5004382;28;20220;-90
2023/11/18 15:19:17;;;;;;;1.70;1.10;;;10.50;99.90;;;;;;4998494;28;20188;-90
2023/11/18 15:22:39;;;;;;;2.57;0.97;;;10.60;99.90;;;;;;5009432;28;20719;-92
2023/11/18 15:26:30;;;;;;;1.73;1.10;;;10.60;99.90;;;;;;4980606;28;20261;-92
2023/11/18 15:28:49;;;;;;;2.07;1.10;;;10.60;99.90;;;;;;4924132;29;20246;-90
2023/11/18 15:31:21;;;;;;;1.70;1.10;;;10.70;99.90;;;;;;4914213;29;20350;-90
2023/11/18 15:34:07;;;;;;;2.40;1.30;;;10.70;99.90;;;;;;4975633;28;20195;-94
2023/11/18 15:36:51;;;;;;;1.83;1.20;;;10.50;99.90;;;;;;5013536;28;20228;-93
2023/11/18 15:39:23;;;;;;;1.73;1.20;;;10.70;99.90;;;;;;4996547;28;20195;-93
2023/11/18 15:42:13;;;;;;;2.47;1.40;;;10.60;99.90;;;;;;4983182;28;20220;-91
2023/11/18 15:44:46;;;;;;;2.33;1.40;;;10.80;99.90;;;;;;5014012;28;20191;-93
2023/11/18 15:47:13;;;;;;;2.17;1.20;;;10.80;99.90;;;;;;4990476;28;20198;-92
2023/11/18 15:49:44;;;;;;;2.30;1.30;;;10.60;99.90;;;;;;4992862;28;20195;-94
2023/11/18 15:52:17;;;;;;;2.87;1.60;;;10.80;99.90;;;;;;4974137;28;20205;-92
2023/11/18 15:54:54;;;;;;;2.20;1.43;;;10.90;99.90;;;;;;4991353;28;20177;-92
2023/11/18 15:57:26;;;;;;;2.47;1.80;;;10.90;99.90;;;;;;5013003;28;20236;-92
2023/11/18 16:00:07;;;;;;;3.33;1.80;;;10.90;99.90;;;;;;4980945;28;20190;-94
2023/11/18 16:03:22;;;;;;;2.73;1.70;;;10.90;99.90;;;;;;4996245;28;20192;-92
2023/11/18 16:06:19;;;;;;;4.47;1.83;;;11.00;99.90;;;;;;4993321;28;20244;-93
2023/11/18 16:09:01;;;;;;;4.30;2.10;;;11.00;99.90;;;;;;4993364;28;20191;-94
2023/11/18 16:11:53;;;;;;;3.30;2.40;;;11.30;99.90;;;;;;4978538;28;20207;-92
2023/11/18 16:14:31;;;;;;;3.03;2.27;;;11.10;99.90;;;;;;4996583;28;20556;-93
2023/11/18 16:17:03;;;;;;;4.53;2.50;;;11.10;99.90;;;;;;4995054;28;20223;-93
2023/11/18 16:19:38;;;;;;;4.30;3.00;;;11.10;99.90;;;;;;4996345;28;20183;-92
2023/11/18 16:22:20;;;;;;;3.47;2.40;;;11.10;99.90;;;;;;5017690;28;20228;-92
2023/11/18 16:24:51;;;;;;;3.47;2.40;;;11.10;99.90;;;;;;5000937;28;20171;-94
2023/11/18 16:27:32;;;;;;;3.67;2.50;;;11.10;99.90;;;;;;4998480;28;20185;-94
2023/11/18 16:30:37;;;;;;;5.93;2.77;;;11.20;99.90;;;;;;4999331;28;20184;-92
2023/11/18 16:33:08;;;;;;;4.77;2.77;;;11.20;99.90;;;;;;5000289;28;20185;-93
2023/11/18 16:35:59;;;;;;;5.20;2.37;;;11.30;99.90;;;;;;5001753;28;20243;-92
2023/11/18 16:38:38;;;;;;;4.10;2.60;;;11.30;99.90;;;;;;5001145;28;20207;-93
2023/11/18 16:41:10;;;;;;;4.23;2.63;;;11.40;99.90;;;;;;4971239;28;20259;-93
2023/11/18 16:43:39;;;;;;;3.97;3.10;;;11.40;99.90;;;;;;4981785;28;20652;-92
2023/11/18 16:46:29;;;;;;;5.63;2.80;;;11.30;99.90;;;;;;5016361;28;20245;-92
2023/11/18 16:48:57;;;;;;;4.63;3.10;;;11.40;99.90;;;;;;5001809;28;20163;-93
2023/11/18 16:51:30;;;;;;;4.37;2.87;;;11.50;99.90;;;;;;5015967;28;20171;-92
2023/11/18 16:53:56;;;;;;;5.07;3.17;;;11.50;99.90;;;;;;4997574;28;20191;-92
2023/11/18 16:56:35;;;;;;;4.97;3.43;;;11.60;99.90;;;;;;5000048;28;20225;-92
2023/11/18 16:59:27;;;;;;;4.93;3.33;;;11.50;99.90;;;;;;4994661;28;20185;-90
2023/11/18 17:02:06;;;;;;;5.73;3.30;;;11.60;99.90;;;;;;5013615;28;20221;-92
2023/11/18 17:04:33;;;;;;;4.27;3.30;;;11.60;99.90;;;;;;4994112;28;20191;-92
2023/11/18 17:07:35;;;;;;;5.77;3.73;;;11.60;99.90;;;;;;4993344;28;20197;-92
2023/11/18 17:09:55;;;;;;;5.23;3.57;;;11.50;99.90;;;;;;4993397;28;20187;-93
2023/11/18 17:12:31;;;;;;;5.40;3.70;;;11.70;99.90;;;;;;5010759;28;20716;-92
2023/11/18 17:15:18;;;;;;;5.33;3.83;;;11.70;99.90;;;;;;5007543;28;20198;-93
2023/11/18 17:18:00;;;;;;;6.93;4.57;;;11.80;99.90;;;;;;4989128;28;20231;-93
2023/11/18 17:20:44;;;;;;;6.60;4.50;;;11.90;99.90;;;;;;5005795;28;20170;-94
2023/11/18 17:23:16;;;;;;;7.67;5.43;;;11.70;99.90;;;;;;4983340;28;20210;-93
2023/11/18 17:25:47;;;;;;;7.87;5.10;;;11.80;99.90;;;;;;4967754;28;20185;-92
2023/11/18 17:28:17;;;;;;;7.60;5.37;;;11.80;99.90;;;;;;4987060;28;20197;-92
2023/11/18 17:30:46;;;;;;;7.90;5.13;;;11.90;99.90;;;;;;4986407;28;20281;-93
2023/11/18 17:33:23;;;;;;;8.13;5.43;;;11.90;99.90;;;;;;4987040;28;20252;-93
2023/11/18 17:35:49;;;;;;;7.20;5.40;;;11.90;99.90;;;;;;4988086;28;20201;-92
2023/11/18 17:38:35;;;;;;;8.60;5.20;;;12.00;99.90;;;;;;4987841;28;20195;-93
2023/11/18 17:41:08;;;;;;;6.03;4.77;;;12.00;99.90;;;;;;4987409;28;20178;-94
2023/11/18 17:43:41;;;;;;;7.97;4.77;;;12.00;99.90;;;;;;4987417;28;20183;-93
2023/11/18 17:46:25;;;;;;;8.03;4.80;;;12.10;99.90;;;;;;4973553;28;20188;-93
2023/11/18 17:49:00;;;;;;;7.43;5.13;;;12.20;99.90;;;;;;4971234;28;20212;-93
2023/11/18 17:51:29;;;;;;;6.40;5.30;;;12.10;99.90;;;;;;4975249;28;20183;-93
2023/11/18 17:54:02;;;;;;;6.53;5.23;;;12.20;99.90;;;;;;4972678;28;20195;-93
2023/11/18 17:56:45;;;;;;;5.27;4.53;;;12.10;99.90;;;;;;4989266;28;20255;-92
2023/11/18 17:59:18;;;;;;;6.33;4.67;;;12.30;99.90;;;;;;4972872;28;20188;-94
2023/11/18 18:02:08;;;;;;;5.30;4.80;;;12.40;99.90;;;;;;4974203;28;20219;-92
2023/11/18 18:04:42;;;;;;;5.20;4.03;;;12.30;99.90;;;;;;4981676;28;20235;-93
2023/11/18 18:07:45;;;;;;;5.43;4.47;;;12.30;99.90;;;;;;4980441;28;20199;-92
2023/11/18 18:10:28;;;;;;;;;;;;;;;;;;;;;
2023/11/18 18:13:04;;;;;;;4.97;4.47;;;12.50;99.90;;;;;;5003256;28;20233;-92
2023/11/18 18:15:30;;;;;;;5.50;4.97;;;12.70;99.90;;;;;;4978959;28;20195;-92
2023/11/18 18:17:56;;;;;;;6.20;5.33;;;12.60;99.90;;;;;;4975551;28;20239;-91
2023/11/18 18:20:24;;;;;;;5.30;4.80;;;12.60;99.90;;;;;;4993163;28;20271;-93
2023/11/18 18:23:04;;;;;;;5.20;4.70;;;12.60;99.90;;;;;;4981736;28;20237;-93
2023/11/18 18:25:49;;;;;;;7.27;5.37;;;12.80;99.90;;;;;;4997561;28;20186;-92
2023/11/18 18:28:22;;;;;;;5.67;4.57;;;12.80;99.90;;;;;;4997231;28;20182;-93
2023/11/18 18:31:09;;;;;;;6.13;4.90;;;12.90;99.90;;;;;;4989089;28;20394;-91
2023/11/18 18:34:46;;;;;;;;;;;;;;;;;;;;;
2023/11/18 18:37:38;;;;;;;5.53;5.03;;;13.10;99.90;;;;;;4956898;29;20220;-95
2023/11/18 18:40:11;;;;;;;6.33;5.73;;;13.10;99.90;;;;;;4973280;28;20174;-93
2023/11/18 18:43:07;;;;;;;5.90;5.30;;;13.10;99.90;;;;;;4999291;28;20229;-94
2023/11/18 18:45:49;;;;;;;6.07;5.47;;;13.00;99.90;;;;;;4928061;28;20706;-94
2023/11/18 18:49:11;;;;;;;8.10;5.57;;;13.10;99.90;;;;;;4997923;28;20183;-94
2023/11/18 18:51:48;;;;;;;6.30;5.37;;;13.10;99.90;;;;;;4962977;28;20175;-92
2023/11/18 18:54:52;;;;;;;7.60;6.13;;;13.00;99.90;;;;;;5019526;28;20239;-95
2023/11/18 18:58:11;;;;;;;6.90;6.10;;;13.00;99.90;;;;;;5002662;28;20206;-93
2023/11/18 19:00:52;;;;;;;6.77;6.13;;;13.10;99.90;;;;;;5002565;28;20254;-92
2023/11/18 19:03:22;;;;;;;6.43;5.70;;;13.20;99.90;;;;;;5004305;28;20235;-90
2023/11/18 19:05:51;;;;;;;6.40;5.80;;;13.10;99.90;;;;;;5002397;28;20167;-91
2023/11/18 19:08:23;;;;;;;6.30;5.70;;;13.20;99.90;;;;;;5003958;28;20217;-92
2023/11/18 19:10:52;;;;;;;7.67;6.67;;;13.10;99.90;;;;;;5000847;28;20183;-93
2023/11/18 19:13:24;;;;;;;7.47;6.67;;;13.10;99.90;;;;;;4994383;28;20194;-92
2023/11/18 19:16:09;;;;;;;;;;;;;;;;;;;;;
2023/11/18 19:18:46;;;;;;;8.50;7.27;;;13.20;99.90;;;;;;5012964;28;20210;-91
2023/11/18 19:21:16;;;;;;;7.60;6.90;;;13.20;99.90;;;;;;4996198;28;20219;-92
2023/11/18 19:24:14;;;;;;;8.47;7.13;;;13.10;99.90;;;;;;5007086;28;20218;-93
2023/11/18 19:26:41;;;;;;;7.17;6.47;;;13.10;99.90;;;;;;5095615;23;20238;-93
2023/11/18 19:29:16;;;;;;;7.33;6.60;;;13.10;99.90;;;;;;4995822;28;20186;-93
2023/11/18 19:31:42;;;;;;;7.50;6.70;;;13.20;99.90;;;;;;4998735;28;20179;-93
2023/11/18 19:34:27;;;;;;;;;;;;;;;;;;;;;
2023/11/18 19:37:30;;;;;;;6.93;6.23;;;13.20;99.90;;;;;;5016704;28;20685;-91
2023/11/18 19:40:17;;;;;;;6.13;5.53;;;13.30;99.90;;;;;;5001572;28;20171;-91
2023/11/18 19:43:29;;;;;;;7.10;6.40;;;13.30;99.90;;;;;;5003259;28;20251;-91
2023/11/18 19:46:13;;;;;;;6.37;5.77;;;13.20;99.90;;;;;;4975491;28;20173;-89
2023/11/18 19:49:10;;;;;;;6.87;5.60;;;13.20;99.90;;;;;;4982358;28;20175;-90
2023/11/18 19:51:59;;;;;;;9.03;6.10;;;13.40;99.90;;;;;;5037638;23;20276;-91
2023/11/18 19:55:45;;;;;;;6.87;5.87;;;13.20;99.90;;;;;;4992167;28;20215;-91
2023/11/18 19:58:33;;;;;;;7.73;7.03;;;13.20;99.90;;;;;;4987697;28;20242;-91
2023/11/18 20:03:52;;;;;;;7.57;6.93;;;13.40;99.90;;;;;;5016060;28;20226;-95
2023/11/18 20:06:19;;;;;;;7.17;6.47;;;13.40;99.90;;;;;;4980134;28;20186;-95
2023/11/18 20:08:55;;;;;;;7.37;6.77;;;13.40;99.90;;;;;;4977450;28;20190;-95
2023/11/18 20:11:50;;;;;;;8.87;7.90;;;13.40;99.90;;;;;;5012254;28;20179;-95
2023/11/18 20:14:39;;;;;;;9.43;8.40;;;13.30;99.90;;;;;;4994485;28;20212;-96
2023/11/18 20:17:51;;;;;;;7.60;6.90;;;13.50;99.90;;;;;;4996850;28;20229;-95
2023/11/18 20:20:32;;;;;;;8.47;7.63;;;13.40;99.90;;;;;;5014600;28;20183;-96
2023/11/18 20:24:11;;;;;;;8.70;7.83;;;13.50;99.90;;;;;;5073022;23;20218;-92
2023/11/18 20:27:29;;;;;;;8.13;7.33;;;13.50;99.90;;;;;;4968619;28;20199;-92
2023/11/18 20:42:00;;;;;;;7.67;6.97;;;13.50;99.90;;;;;;4999607;28;20171;-91
2023/11/18 20:44:59;;;;;;;7.83;7.03;;;13.60;99.90;;;;;;4998848;28;20179;-92
2023/11/18 20:48:03;;;;;;;;;;;;;;;;;;;;;
2023/11/18 20:50:50;;;;;;;8.63;6.77;;;13.70;99.90;;;;;;4972999;28;20217;-96
2023/11/18 20:53:28;;;;;;;7.70;6.67;;;13.80;99.90;;;;;;4991915;28;20194;-96
2023/11/18 20:56:01;;;;;;;7.30;6.30;;;13.70;99.90;;;;;;4991293;28;20587;-95
2023/11/18 20:59:10;;;;;;;6.80;6.10;;;13.70;99.90;;;;;;5017923;28;20179;-93
2023/11/18 21:02:23;;;;;;;5.80;5.30;;;13.80;99.90;;;;;;5002556;28;20175;-94
2023/11/18 21:04:57;;;;;;;6.27;5.33;;;13.70;99.90;;;;;;4995793;28;20187;-95
2023/11/18 21:07:37;;;;;;;5.97;4.50;;;13.80;99.90;;;;;;5012771;28;20185;-94
2023/11/18 21:10:06;;;;;;;5.50;5.00;;;13.80;99.90;;;;;;4998848;28;20223;-94
2023/11/18 21:12:55;;;;;;;5.47;4.73;;;13.80;99.90;;;;;;5011229;28;20242;-91
2023/11/18 21:15:41;;;;;;;5.47;4.33;;;13.80;99.90;;;;;;5014990;28;20205;-93
2023/11/18 21:18:14;;;;;;;5.13;4.57;;;13.80;99.90;;;;;;5010843;28;20191;-91
2023/11/18 21:20:46;;;;;;;6.90;4.53;;;13.80;99.90;;;;;;4984493;28;20206;-91
2023/11/18 21:23:50;;;;;;;6.10;4.20;;;13.90;99.90;;;;;;5035289;28;20229;-96
2023/11/18 21:26:30;;;;;;;4.83;4.43;;;13.90;99.90;;;;;;5029513;28;20186;-90
2023/11/18 21:29:19;;;;;;;5.30;4.53;;;13.90;99.90;;;;;;5032727;28;20182;-90
2023/11/18 21:32:04;;;;;;;6.63;4.80;;;14.00;99.90;;;;;;4999099;28;20303;-95
2023/11/18 21:35:22;;;;;;;6.50;4.57;;;14.00;99.90;;;;;;5016004;28;20206;-91
2023/11/18 21:37:51;;;;;;;5.70;4.50;;;14.00;99.90;;;;;;5019172;28;20581;-90
2023/11/18 21:40:46;;;;;;;5.90;4.93;;;14.00;99.90;;;;;;5019076;28;20253;-90
2023/11/18 21:43:37;;;;;;;5.80;4.57;;;14.10;99.90;;;;;;5025013;28;20209;-92
2023/11/18 21:46:06;;;;;;;6.07;5.13;;;14.10;99.90;;;;;;5019492;28;20194;-89
2023/11/18 21:48:41;;;;;;;6.67;4.93;;;14.10;99.90;;;;;;5036593;28;20190;-89
2023/11/18 21:51:30;;;;;;;6.33;5.27;;;14.20;99.90;;;;;;5006955;28;20170;-91
2023/11/18 21:54:24;;;;;;;6.70;6.00;;;14.30;99.90;;;;;;5019069;28;20182;-91
2023/11/18 21:57:39;;;;;;;8.53;5.20;;;14.10;99.90;;;;;;5037398;28;20234;-92
2023/11/18 22:00:30;;;;;;;5.73;5.13;;;14.10;99.90;;;;;;5035938;28;20182;-93
2023/11/18 22:03:02;;;;;;;6.00;5.50;;;14.30;99.90;;;;;;5016937;28;20216;-94
2023/11/18 22:05:30;;;;;;;6.17;5.37;;;14.30;99.90;;;;;;5016855;28;20207;-96
2023/11/18 22:07:56;;;;;;;6.43;5.83;;;14.30;99.90;;;;;;5019919;28;20178;-93
2023/11/18 22:10:25;;;;;;;6.57;5.93;;;14.40;99.90;;;;;;5017569;28;20193;-90
2023/11/18 22:13:00;;;;;;;7.73;7.03;;;14.40;99.90;;;;;;5013063;28;20186;-91
2023/11/18 22:15:26;;;;;;;7.33;6.60;;;14.40;99.90;;;;;;5028067;28;20190;-91
2023/11/18 22:17:51;;;;;;;10.13;6.83;;;14.30;99.90;;;;;;5024758;28;20229;-90
2023/11/18 22:20:24;;;;;;;7.77;7.07;;;14.30;99.90;;;;;;5006079;28;20178;-93
2023/11/18 22:22:50;;;;;;;8.00;7.20;;;14.40;99.90;;;;;;5021288;28;20182;-90
2023/11/18 22:25:17;;;;;;;7.87;6.93;;;14.40;99.90;;;;;;5007894;28;20638;-91
2023/11/18 22:27:47;;;;;;;8.33;7.10;;;14.50;99.90;;;;;;5004387;28;20182;-92
2023/11/18 22:30:15;;;;;;;8.50;7.70;;;14.40;99.90;;;;;;5001994;28;20196;-91
2023/11/18 22:32:42;;;;;;;9.77;6.40;;;14.40;99.90;;;;;;4997474;28;20187;-92
2023/11/18 22:35:09;;;;;;;9.10;7.13;;;14.40;99.90;;;;;;5009936;28;20245;-91
2023/11/18 22:37:36;;;;;;;9.37;7.20;;;14.30;99.90;;;;;;4996617;28;20229;-91
2023/11/18 22:40:16;;;;;;;9.13;7.10;;;14.30;99.90;;;;;;4994892;28;20191;-91
2023/11/18 22:42:44;;;;;;;9.00;6.43;;;14.20;99.90;;;;;;5007694;28;20202;-93
2023/11/18 22:45:15;;;;;;;7.93;6.50;;;14.30;99.90;;;;;;5005840;28;20194;-91
2023/11/18 22:47:44;;;;;;;6.77;5.23;;;14.20;99.90;;;;;;4989241;28;20195;-93
2023/11/18 22:50:12;;;;;;;6.23;5.63;;;14.20;99.90;;;;;;4988082;28;20260;-91
2023/11/18 22:52:38;;;;;;;7.07;6.37;;;14.30;99.90;;;;;;4992959;28;20190;-91
2023/11/18 22:55:07;;;;;;;7.77;6.57;;;14.30;99.90;;;;;;5002662;28;20176;-91
2023/11/18 22:57:34;;;;;;;8.03;7.00;;;14.40;99.90;;;;;;4994178;28;20229;-91
2023/11/18 23:00:14;;;;;;;8.77;6.73;;;14.40;99.90;;;;;;4983477;28;20170;-90
2023/11/18 23:02:52;;;;;;;6.33;5.57;;;14.30;99.90;;;;;;5019408;28;20164;-91
2023/11/18 23:05:26;;;;;;;8.67;5.87;;;14.20;99.90;;;;;;5003012;28;20195;-90
2023/11/18 23:07:57;;;;;;;7.13;5.23;;;14.20;99.90;;;;;;4995207;28;20651;-92
2023/11/18 23:10:31;;;;;;;6.77;5.10;;;14.30;99.90;;;;;;5006534;28;20202;-91
2023/11/18 23:12:59;;;;;;;7.70;5.30;;;14.30;99.90;;;;;;5006659;28;20194;-90
2023/11/18 23:15:24;;;;;;;5.93;5.27;;;14.30;99.90;;;;;;4999008;28;20234;-92
2023/11/18 23:17:53;;;;;;;5.63;4.83;;;14.30;99.90;;;;;;5017019;28;20254;-92
2023/11/18 23:20:21;;;;;;;5.93;4.67;;;14.30;99.90;;;;;;5013250;28;20163;-90
2023/11/18 23:22:50;;;;;;;5.13;4.63;;;14.30;99.90;;;;;;4996890;28;20179;-92
2023/11/18 23:25:17;;;;;;;5.60;4.50;;;14.30;99.90;;;;;;4983687;28;20183;-92
2023/11/18 23:27:44;;;;;;;5.57;4.27;;;14.20;99.90;;;;;;4981946;28;20183;-90
2023/11/18 23:30:12;;;;;;;5.60;4.10;;;14.20;99.90;;;;;;4982895;28;20188;-92
2023/11/18 23:32:39;;;;;;;5.00;3.63;;;14.20;99.90;;;;;;4967604;28;20237;-93
2023/11/18 23:35:08;;;;;;;6.37;4.20;;;14.20;99.90;;;;;;4987401;28;20303;-93
2023/11/18 23:37:35;;;;;;;5.13;3.90;;;14.20;99.90;;;;;;4998195;28;20216;-94
2023/11/18 23:40:09;;;;;;;5.13;3.33;;;14.30;99.90;;;;;;4999222;28;20220;-94
2023/11/18 23:42:38;;;;;;;6.37;4.00;;;14.30;99.90;;;;;;4992770;28;20210;-96
2023/11/18 23:45:18;;;;;;;5.50;4.00;;;14.20;99.90;;;;;;4979298;28;20178;-94
2023/11/18 23:47:45;;;;;;;6.90;4.10;;;14.30;99.90;;;;;;4998917;28;20180;-96
2023/11/18 23:50:25;;;;;;;8.67;3.93;;;14.30;99.90;;;;;;4996592;28;20179;-95
2023/11/18 23:53:07;;;;;;;6.40;4.00;;;14.30;99.90;;;;;;5019641;28;20195;-96
2023/11/18 23:55:33;;;;;;;7.87;4.30;;;14.30;99.90;;;;;;5001368;28;20177;-94